Terminal Aerodrome Forecast
Issued by NWS Wilmington, OH

Home | Current Version | Previous Version | Text Only | Print | Product List | Glossary On
Versions: 1 2 3 4 5 6 7 8 9 10 11 12 13 14 15 16 17 18 19
000
FTUS41 KILN 202300
TAFCMH
TAF
KCMH 202338Z 2100/2124 24004KT P6SM FEW050 SCT250
     FM211100 23005KT P6SM FEW025 BKN100
     FM211400 23006KT P6SM -SHRA VCTS BKN040CB
      TEMPO 2115/2117 5SM -TSRA
     FM211900 24009KT P6SM VCSH SCT035 BKN150
     FM212300 23007KT P6SM FEW040 SCT200=

USA.gov is the U.S. government's official web portal to all federal, state and local government web resources and services.